Terminal Aerodrome Forecast
Issued by NWS Tampa Bay Area, FL

Home | Current Version | Previous Version | Text Only | Print | Product List | Glossary On
Versions: 1 2 3 4 5 6 7 8 9 10 11 12 13 14 15 16 17 18 19 20 21 22 23 24 25 26 27 28
000
FTUS42 KTBW 280500
TAFTPA
TAF
KTPA 280537Z 2806/2906 10005KT P6SM SCT050 SCT070
     FM281800 18006KT P6SM FEW035 SCT250
     FM282000 24004KT P6SM VCTS SCT035CB BKN050
     FM290000 31005KT P6SM VCSH BKN050
     FM290300 03004KT P6SM SCT050 BKN250=

USA.gov is the U.S. government's official web portal to all federal, state and local government web resources and services.